createdAt,value
2018-08-18T00:01:11.379Z,82.30
2018-08-18T00:03:39.098Z,82.10
2018-08-18T00:06:06.832Z,81.90
2018-08-18T00:08:34.458Z,81.50
2018-08-18T00:11:03.642Z,82.20
2018-08-18T00:13:46.016Z,82.20
2018-08-18T00:16:17.106Z,82.40
2018-08-18T00:18:44.777Z,81.80
2018-08-18T00:21:12.470Z,81.00
2018-08-18T00:23:45.189Z,80.50
2018-08-18T00:26:12.825Z,80.80
2018-08-18T00:28:40.492Z,80.90
2018-08-18T00:31:08.292Z,80.10
2018-08-18T00:33:35.935Z,79.90
2018-08-18T00:36:04.002Z,79.60
2018-08-18T00:38:31.638Z,80.20
2018-08-18T00:40:59.305Z,80.10
2018-08-18T00:43:26.989Z,79.50
2018-08-18T00:45:54.763Z,79.40
2018-08-18T00:48:22.434Z,79.30
2018-08-18T00:50:50.154Z,78.90
2018-08-18T00:53:17.796Z,79.10
2018-08-18T00:55:45.542Z,78.90
2018-08-18T00:58:31.990Z,78.60
2018-08-18T01:01:04.658Z,78.80
2018-08-18T01:04:06.933Z,78.70
2018-08-18T01:06:41.808Z,79.10
2018-08-18T01:09:10.926Z,80.50
2018-08-18T01:11:38.860Z,80.00
2018-08-18T01:14:14.531Z,80.50
2018-08-18T01:16:48.652Z,80.20
2018-08-18T01:19:16.704Z,81.00
2018-08-18T01:21:56.965Z,80.70
2018-08-18T01:24:24.841Z,80.80
2018-08-18T01:26:52.502Z,80.30
2018-08-18T01:29:20.205Z,80.30
2018-08-18T01:31:48.070Z,80.30
2018-08-18T01:34:15.717Z,80.60
2018-08-18T01:36:43.452Z,80.70
2018-08-18T01:39:12.687Z,80.80
2018-08-18T01:41:40.385Z,80.60
2018-08-18T01:44:13.421Z,80.10
2018-08-18T01:46:41.725Z,79.90
2018-08-18T01:49:30.654Z,79.50
2018-08-18T01:52:00.504Z,79.30
2018-08-18T01:54:28.262Z,79.20
2018-08-18T01:57:11.651Z,79.10
2018-08-18T01:59:40.577Z,78.40
2018-08-18T02:02:16.433Z,77.70
2018-08-18T02:04:44.846Z,78.50
2018-08-18T02:07:19.650Z,78.00
2018-08-18T02:09:47.411Z,77.80
2018-08-18T02:12:15.126Z,77.60
2018-08-18T02:14:42.871Z,77.70
2018-08-18T02:17:18.539Z,78.10
2018-08-18T02:19:46.400Z,78.40
2018-08-18T02:22:14.033Z,78.20
2018-08-18T02:24:42.364Z,77.70
2018-08-18T02:27:10.434Z,77.30
2018-08-18T02:29:38.101Z,77.10
2018-08-18T02:32:13.363Z,77.20
2018-08-18T02:34:41.046Z,77.00
2018-08-18T02:37:08.786Z,77.00
2018-08-18T02:39:36.474Z,77.50
2018-08-18T02:42:04.238Z,77.30
2018-08-18T02:44:31.894Z,77.50
2018-08-18T02:46:59.548Z,78.20
2018-08-18T02:49:27.323Z,77.70
2018-08-18T02:51:55.006Z,78.50
2018-08-18T02:54:24.868Z,78.10
2018-08-18T02:56:52.618Z,78.00
2018-08-18T02:59:20.285Z,77.90
2018-08-18T03:01:47.938Z,78.00
2018-08-18T03:04:15.594Z,78.10
2018-08-18T03:06:43.277Z,78.60
2018-08-18T03:09:11.793Z,79.10
2018-08-18T03:11:41.502Z,79.10
2018-08-18T03:14:09.578Z,80.10
2018-08-18T03:16:39.709Z,80.20
2018-08-18T03:19:07.517Z,80.70
2018-08-18T03:21:40.689Z,81.80
2018-08-18T03:24:15.107Z,81.40
2018-08-18T03:26:45.706Z,82.00
2018-08-18T03:29:14.244Z,81.80
2018-08-18T03:31:42.329Z,81.50
2018-08-18T03:34:10.645Z,81.20
2018-08-18T03:36:40.681Z,81.40
2018-08-18T03:39:23.470Z,80.90
2018-08-18T03:41:52.779Z,81.40
2018-08-18T03:44:20.447Z,81.80
2018-08-18T03:46:48.175Z,82.60
2018-08-18T03:49:15.878Z,81.30
2018-08-18T03:51:44.959Z,81.50
2018-08-18T03:54:13.021Z,80.50
2018-08-18T03:56:41.103Z,80.40
2018-08-18T03:59:08.799Z,80.00
2018-08-18T04:01:51.587Z,79.00
2018-08-18T04:04:20.573Z,79.10
2018-08-18T04:06:49.377Z,78.60
2018-08-18T04:09:19.019Z,79.00
2018-08-18T04:11:46.733Z,78.10
2018-08-18T04:14:17.637Z,78.10
2018-08-18T04:16:46.471Z,78.20
2018-08-18T04:19:16.309Z,78.00
2018-08-18T04:21:44.295Z,78.20
2018-08-18T04:24:12.189Z,77.50
2018-08-18T04:26:39.914Z,77.40
2018-08-18T04:29:07.614Z,77.30
2018-08-18T04:31:40.916Z,77.20
2018-08-18T04:34:08.586Z,77.30
2018-08-18T04:36:36.250Z,77.00
2018-08-18T04:39:14.673Z,76.70
2018-08-18T04:41:42.746Z,77.10
2018-08-18T04:44:10.446Z,77.40
2018-08-18T04:46:38.183Z,77.50
2018-08-18T04:49:06.335Z,77.20
2018-08-18T04:51:34.122Z,76.80
2018-08-18T04:54:02.286Z,76.80
2018-08-18T04:56:30.056Z,76.70
2018-08-18T04:58:57.741Z,77.20
2018-08-18T05:01:25.442Z,77.60
2018-08-18T05:04:03.985Z,75.90
2018-08-18T05:06:32.559Z,76.60
2018-08-18T05:09:01.465Z,75.80
2018-08-18T05:11:29.564Z,75.60
2018-08-18T05:13:57.701Z,75.50
2018-08-18T05:16:25.395Z,75.70
2018-08-18T05:18:53.218Z,75.90
2018-08-18T05:21:22.241Z,76.40
2018-08-18T05:23:56.089Z,75.90
2018-08-18T05:26:23.779Z,76.00
2018-08-18T05:28:51.433Z,75.50
2018-08-18T05:31:20.476Z,75.90
2018-08-18T05:33:48.546Z,75.90
2018-08-18T05:36:16.205Z,76.10
2018-08-18T05:38:43.876Z,76.50
2018-08-18T05:41:12.144Z,76.60
2018-08-18T05:43:39.788Z,76.70
2018-08-18T05:46:08.611Z,77.10
2018-08-18T05:48:36.272Z,76.50
2018-08-18T05:51:04.126Z,75.90
2018-08-18T05:53:33.853Z,76.10
2018-08-18T05:56:02.323Z,75.90
2018-08-18T05:58:46.976Z,75.80
2018-08-18T06:01:26.254Z,75.40
2018-08-18T06:04:03.886Z,75.50
2018-08-18T06:06:31.799Z,75.40
2018-08-18T06:08:59.638Z,75.50
2018-08-18T06:11:27.528Z,75.80
2018-08-18T06:13:55.194Z,75.70
2018-08-18T06:16:22.880Z,75.10
2018-08-18T06:18:50.588Z,75.30
2018-08-18T06:21:18.269Z,75.60
2018-08-18T06:23:46.369Z,75.80
2018-08-18T06:26:14.009Z,75.20
2018-08-18T06:28:41.718Z,75.40
2018-08-18T06:31:09.417Z,75.00
2018-08-18T06:33:37.107Z,75.00
2018-08-18T06:36:04.881Z,74.30
2018-08-18T06:38:32.782Z,73.60
2018-08-18T06:41:01.740Z,72.90
2018-08-18T06:43:31.553Z,72.70
2018-08-18T06:45:59.870Z,73.20
2018-08-18T06:48:31.112Z,73.60
2018-08-18T06:50:58.835Z,73.30
2018-08-18T06:53:26.819Z,74.10
2018-08-18T06:55:56.549Z,72.50
2018-08-18T06:58:24.526Z,71.90
2018-08-18T07:00:52.176Z,71.60
2018-08-18T07:03:31.185Z,71.30
2018-08-18T07:05:58.931Z,69.70
2018-08-18T07:08:26.795Z,70.80
2018-08-18T07:10:54.424Z,71.20
2018-08-18T07:13:22.057Z,71.20
2018-08-18T07:15:49.706Z,71.70
2018-08-18T07:18:17.486Z,71.60
2018-08-18T07:20:45.170Z,71.90
2018-08-18T07:23:12.865Z,71.00
2018-08-18T07:25:47.178Z,70.50
2018-08-18T07:28:17.103Z,71.30
2018-08-18T07:30:44.765Z,70.80
2018-08-18T07:33:12.478Z,69.10
2018-08-18T07:35:40.179Z,69.60
2018-08-18T07:38:07.967Z,69.70
2018-08-18T07:40:40.824Z,69.30
2018-08-18T07:43:08.845Z,69.20
2018-08-18T07:45:36.997Z,68.90
2018-08-18T07:48:05.795Z,69.10
2018-08-18T07:50:33.488Z,69.90
2018-08-18T07:53:01.463Z,71.20
2018-08-18T07:55:29.604Z,69.40
2018-08-18T07:57:58.652Z,69.50
2018-08-18T08:00:28.356Z,69.70
2018-08-18T08:02:56.106Z,69.90
2018-08-18T08:05:23.790Z,69.10
2018-08-18T08:07:51.471Z,67.60
2018-08-18T08:10:19.152Z,67.30
2018-08-18T08:12:47.016Z,66.90
2018-08-18T08:15:15.265Z,68.80
2018-08-18T08:17:44.040Z,69.10
2018-08-18T08:20:11.938Z,66.80
2018-08-18T08:22:39.799Z,66.50
2018-08-18T08:25:08.634Z,67.30
2018-08-18T08:27:36.629Z,67.60
2018-08-18T08:30:05.399Z,68.10
2018-08-18T08:32:33.171Z,69.60
2018-08-18T08:35:02.406Z,68.80
2018-08-18T08:37:30.409Z,67.80
2018-08-18T08:39:58.299Z,67.70
2018-08-18T08:42:26.186Z,68.10
2018-08-18T08:44:55.622Z,68.20
2018-08-18T08:47:23.353Z,68.20
2018-08-18T08:49:51.459Z,67.90
2018-08-18T08:52:19.375Z,67.10
2018-08-18T08:54:47.129Z,65.90
2018-08-18T08:57:14.794Z,65.50
2018-08-18T08:59:42.478Z,66.80
2018-08-18T09:02:12.830Z,69.10
2018-08-18T09:04:40.506Z,69.50
2018-08-18T09:07:09.848Z,69.10
2018-08-18T09:09:37.603Z,68.80
2018-08-18T09:12:05.634Z,67.90
2018-08-18T09:14:33.386Z,69.10
2018-08-18T09:17:01.043Z,69.70
2018-08-18T09:19:28.792Z,69.80
2018-08-18T09:21:58.099Z,69.00
2018-08-18T09:24:27.070Z,69.00
2018-08-18T09:27:00.272Z,68.50
2018-08-18T09:29:32.745Z,68.10
2018-08-18T09:32:00.474Z,67.60
2018-08-18T09:34:30.907Z,67.20
2018-08-18T09:36:58.615Z,66.50
2018-08-18T09:39:31.692Z,66.20
2018-08-18T09:41:59.893Z,66.40
2018-08-18T09:44:31.079Z,66.40
2018-08-18T09:46:58.902Z,66.60
2018-08-18T09:49:27.606Z,66.70
2018-08-18T09:51:55.350Z,66.40
2018-08-18T09:54:23.018Z,67.20
2018-08-18T09:56:50.769Z,65.80
2018-08-18T09:59:18.497Z,65.90
2018-08-18T10:01:46.366Z,67.30
2018-08-18T10:04:13.988Z,66.80
2018-08-18T10:06:41.703Z,67.00
2018-08-18T10:09:10.645Z,66.00
2018-08-18T10:11:38.729Z,65.50
2018-08-18T10:14:06.792Z,64.30
2018-08-18T10:16:34.607Z,64.20
2018-08-18T10:19:05.479Z,63.50
2018-08-18T10:24:26.076Z,62.00
2018-08-18T10:26:59.355Z,62.40
2018-08-18T10:29:27.067Z,61.80
2018-08-18T10:31:56.278Z,60.80
2018-08-18T10:37:17.483Z,60.50
2018-08-18T10:39:45.126Z,60.50
2018-08-18T10:42:15.067Z,61.20
2018-08-18T10:44:50.123Z,59.80
2018-08-18T10:47:19.114Z,61.90
2018-08-18T10:49:57.962Z,61.50
2018-08-18T10:52:58.802Z,61.30
2018-08-18T10:55:26.458Z,62.50
2018-08-18T10:58:00.514Z,60.20
2018-08-18T11:00:34.261Z,61.10
2018-08-18T11:03:04.429Z,59.90
2018-08-18T11:05:32.201Z,58.90
2018-08-18T11:08:09.598Z,58.90
2018-08-18T11:10:40.378Z,58.30
2018-08-18T11:13:08.152Z,58.70
2018-08-18T11:15:35.894Z,58.40
2018-08-18T11:18:03.709Z,57.90
2018-08-18T11:20:32.766Z,56.90
2018-08-18T11:23:19.912Z,57.30
2018-08-18T11:25:51.764Z,56.70
2018-08-18T11:28:20.015Z,57.20
2018-08-18T11:30:49.140Z,56.90
2018-08-18T11:33:35.247Z,55.90
2018-08-18T11:36:03.747Z,55.00
2018-08-18T11:38:31.974Z,55.60
2018-08-18T11:40:59.672Z,56.10
2018-08-18T11:43:27.610Z,55.70
2018-08-18T11:45:55.375Z,54.90
2018-08-18T11:48:23.950Z,54.90
2018-08-18T11:50:52.932Z,54.30
2018-08-18T11:53:20.698Z,54.90
2018-08-18T11:55:48.357Z,54.60
2018-08-18T11:58:17.181Z,54.40
2018-08-18T12:00:49.323Z,54.00
2018-08-18T12:03:19.661Z,55.20
2018-08-18T12:06:03.246Z,54.20
2018-08-18T12:08:33.141Z,53.50
2018-08-18T12:11:02.397Z,54.00
2018-08-18T12:13:35.603Z,53.60
2018-08-18T12:16:13.994Z,52.20
2018-08-18T12:18:43.015Z,53.80
2018-08-18T12:21:11.060Z,55.40
2018-08-18T12:23:40.429Z,54.90
2018-08-18T12:26:13.742Z,54.60
2018-08-18T12:28:46.512Z,54.70
2018-08-18T12:31:20.198Z,55.30
2018-08-18T12:33:47.933Z,55.60
2018-08-18T12:36:15.695Z,54.30
2018-08-18T12:38:45.885Z,53.90
2018-08-18T12:41:13.563Z,54.00
2018-08-18T12:43:44.286Z,53.70
2018-08-18T12:46:13.506Z,54.00
2018-08-18T12:48:42.405Z,54.30
2018-08-18T12:51:11.277Z,54.40
2018-08-18T12:53:44.571Z,53.90
2018-08-18T12:56:13.747Z,53.70
2018-08-18T12:58:41.604Z,52.80
2018-08-18T13:01:09.434Z,53.30
2018-08-18T13:03:37.126Z,52.80
2018-08-18T13:06:05.057Z,52.30
2018-08-18T13:08:32.721Z,51.50
2018-08-18T13:11:00.401Z,52.10
2018-08-18T13:13:28.103Z,52.30
2018-08-18T13:15:56.242Z,51.80
2018-08-18T13:18:24.293Z,51.40
2018-08-18T13:20:53.651Z,51.80
2018-08-18T13:23:23.177Z,51.80
2018-08-18T13:25:51.160Z,51.40
2018-08-18T13:28:18.886Z,51.90
2018-08-18T13:30:46.653Z,50.90
2018-08-18T13:33:14.405Z,51.10
2018-08-18T13:35:42.034Z,51.40
2018-08-18T13:38:25.531Z,51.70
2018-08-18T13:40:53.423Z,51.30
2018-08-18T13:43:35.816Z,51.50
2018-08-18T13:46:03.603Z,51.40
2018-08-18T13:48:31.238Z,50.70
2018-08-18T13:50:59.394Z,50.40
2018-08-18T13:53:27.123Z,50.20
2018-08-18T13:55:54.830Z,50.20
2018-08-18T13:58:22.577Z,50.00
2018-08-18T14:00:50.250Z,50.10
2018-08-18T14:03:32.971Z,51.00
2018-08-18T14:06:00.623Z,51.50
2018-08-18T14:11:21.305Z,49.70
2018-08-18T14:13:48.931Z,49.80
2018-08-18T14:19:09.358Z,50.30
2018-08-18T14:21:37.061Z,49.40
2018-08-18T14:24:04.801Z,49.80
2018-08-18T14:26:32.462Z,48.90
2018-08-18T14:29:00.109Z,49.20
2018-08-18T14:31:27.806Z,49.00
2018-08-18T14:33:55.568Z,49.50
2018-08-18T14:36:23.603Z,49.10
2018-08-18T14:38:52.109Z,48.30
2018-08-18T14:41:51.921Z,47.10
2018-08-18T14:44:19.572Z,48.00
2018-08-18T14:46:47.264Z,48.10
2018-08-18T14:49:14.933Z,48.10
2018-08-18T14:51:42.611Z,48.30
2018-08-18T14:54:10.357Z,48.10
2018-08-18T14:56:37.964Z,47.70
2018-08-18T14:59:05.606Z,48.30
2018-08-18T15:01:33.310Z,48.50
2018-08-18T15:04:00.946Z,47.60
2018-08-18T15:06:28.609Z,46.90
2018-08-18T15:08:56.490Z,48.20
2018-08-18T15:11:24.150Z,48.00
2018-08-18T15:13:51.811Z,47.60
2018-08-18T15:16:19.497Z,47.10
2018-08-18T15:18:47.218Z,46.70
2018-08-18T15:21:14.900Z,47.10
2018-08-18T15:23:42.562Z,47.00
2018-08-18T15:26:10.222Z,47.00
2018-08-18T15:28:37.896Z,46.90
2018-08-18T15:31:05.560Z,47.20
2018-08-18T15:33:33.292Z,47.20
2018-08-18T15:36:00.950Z,46.90
2018-08-18T15:38:41.673Z,47.30
2018-08-18T15:41:09.674Z,46.90
2018-08-18T15:43:37.312Z,47.40
2018-08-18T15:46:05.578Z,47.90
2018-08-18T15:48:33.943Z,47.40
2018-08-18T15:51:01.603Z,47.50
2018-08-18T15:53:53.843Z,48.20
2018-08-18T15:56:22.197Z,47.70
2018-08-18T15:58:50.565Z,47.80
2018-08-18T16:01:20.726Z,47.00
2018-08-18T16:03:48.354Z,47.50
2018-08-18T16:06:16.006Z,47.30
2018-08-18T16:08:43.661Z,47.10
2018-08-18T16:11:12.488Z,47.60
2018-08-18T16:13:40.173Z,47.10
2018-08-18T16:16:07.819Z,47.30
2018-08-18T16:18:35.479Z,46.90
2018-08-18T16:21:08.815Z,47.00
2018-08-18T16:23:39.206Z,47.10
2018-08-18T16:26:07.661Z,46.80
2018-08-18T16:28:35.609Z,46.50
2018-08-18T16:31:03.366Z,46.90
2018-08-18T16:33:31.055Z,46.50
2018-08-18T16:35:58.705Z,46.90
2018-08-18T16:38:26.427Z,47.10
2018-08-18T16:40:54.126Z,46.80
2018-08-18T16:43:21.813Z,46.70
2018-08-18T16:45:49.502Z,47.10
2018-08-18T16:48:17.248Z,47.10
2018-08-18T16:50:44.910Z,46.50
2018-08-18T16:53:13.419Z,46.60
2018-08-18T16:55:42.401Z,46.60
2018-08-18T16:58:10.239Z,47.20
2018-08-18T17:00:53.918Z,46.90
2018-08-18T17:03:29.682Z,46.90
2018-08-18T17:05:58.252Z,46.70
2018-08-18T17:08:25.996Z,47.00
2018-08-18T17:10:53.690Z,47.00
2018-08-18T17:13:21.312Z,47.10
2018-08-18T17:15:49.493Z,47.30
2018-08-18T17:18:17.142Z,47.10
2018-08-18T17:20:49.202Z,47.20
2018-08-18T17:23:16.823Z,46.70
2018-08-18T17:25:44.496Z,47.20
2018-08-18T17:28:12.220Z,47.20
2018-08-18T17:30:41.425Z,47.10
2018-08-18T17:33:09.062Z,46.70
2018-08-18T17:35:36.686Z,47.00
2018-08-18T17:38:04.381Z,47.30
2018-08-18T17:40:31.997Z,47.90
2018-08-18T17:42:59.650Z,47.60
2018-08-18T17:45:27.298Z,47.70
2018-08-18T17:47:54.965Z,48.00
2018-08-18T17:50:22.627Z,48.00
2018-08-18T17:52:50.300Z,47.80
2018-08-18T17:55:18.862Z,47.90
2018-08-18T17:57:46.469Z,47.80
2018-08-18T18:00:18.655Z,47.90
2018-08-18T18:02:52.707Z,48.30
2018-08-18T18:05:21.617Z,48.30
2018-08-18T18:07:57.326Z,48.40
2018-08-18T18:10:27.252Z,48.40
2018-08-18T18:12:54.908Z,48.70
2018-08-18T18:15:33.539Z,48.60
2018-08-18T18:18:01.234Z,48.80
2018-08-18T18:20:30.489Z,48.70
2018-08-18T18:22:58.133Z,49.10
2018-08-18T18:25:25.778Z,49.50
2018-08-18T18:27:53.448Z,49.60
2018-08-18T18:30:22.813Z,49.50
2018-08-18T18:32:50.478Z,49.70
2018-08-18T18:35:18.927Z,49.60
2018-08-18T18:37:46.684Z,49.90
2018-08-18T18:40:14.374Z,49.70
2018-08-18T18:42:42.045Z,50.10
2018-08-18T18:45:10.102Z,50.10
2018-08-18T18:47:37.985Z,50.30
2018-08-18T18:50:06.581Z,50.20
2018-08-18T18:52:34.370Z,50.40
2018-08-18T18:55:02.162Z,50.60
2018-08-18T18:57:30.003Z,50.70
2018-08-18T18:59:59.517Z,50.70
2018-08-18T19:02:49.065Z,51.10
2018-08-18T19:05:22.566Z,51.00
2018-08-18T19:08:11.682Z,51.40
2018-08-18T19:10:39.435Z,51.30
2018-08-18T19:13:07.858Z,51.50
2018-08-18T19:15:35.573Z,51.60
2018-08-18T19:18:03.380Z,51.90
2018-08-18T19:20:31.085Z,52.10
2018-08-18T19:23:32.988Z,52.10
2018-08-18T19:26:00.633Z,52.20
2018-08-18T19:28:28.313Z,52.30
2018-08-18T19:30:56.058Z,52.60
2018-08-18T19:33:23.721Z,53.00
2018-08-18T19:35:52.489Z,53.40
2018-08-18T19:38:21.006Z,54.00
2018-08-18T19:40:51.343Z,53.90
2018-08-18T19:43:20.014Z,54.20
2018-08-18T19:45:47.989Z,54.50
2018-08-18T19:48:17.877Z,54.70
2018-08-18T19:50:52.145Z,54.90
2018-08-18T19:53:23.253Z,55.00
2018-08-18T19:55:51.862Z,55.10
2018-08-18T19:58:19.509Z,55.30
2018-08-18T20:00:47.166Z,55.70
2018-08-18T20:03:15.998Z,55.50
2018-08-18T20:05:43.665Z,55.60
2018-08-18T20:08:12.639Z,55.80
2018-08-18T20:10:46.388Z,56.40
2018-08-18T20:13:14.810Z,56.70
2018-08-18T20:15:47.375Z,56.70
2018-08-18T20:18:15.217Z,56.90
2018-08-18T20:20:42.850Z,57.00
2018-08-18T20:23:10.575Z,56.80
2018-08-18T20:25:38.204Z,57.00
2018-08-18T20:28:05.907Z,57.30
2018-08-18T20:30:33.598Z,57.50
2018-08-18T20:33:01.285Z,57.60
2018-08-18T20:35:29.170Z,57.80
2018-08-18T20:37:56.964Z,57.80
2018-08-18T20:40:25.135Z,57.90
2018-08-18T20:42:53.942Z,58.50
2018-08-18T20:45:22.270Z,58.80
2018-08-18T20:47:49.827Z,58.70
2018-08-18T20:50:17.498Z,58.80
2018-08-18T20:52:45.114Z,58.90
2018-08-18T20:55:12.737Z,59.00
2018-08-18T20:57:40.380Z,59.20
2018-08-18T21:00:09.806Z,59.30
2018-08-18T21:02:37.385Z,59.40
2018-08-18T21:05:07.313Z,59.40
2018-08-18T21:07:35.259Z,59.60
2018-08-18T21:10:07.422Z,59.60
2018-08-18T21:12:40.681Z,59.40
2018-08-18T21:15:08.329Z,59.90
2018-08-18T21:17:35.985Z,60.30
2018-08-18T21:20:07.405Z,59.80
2018-08-18T21:22:35.570Z,60.50
2018-08-18T21:25:03.489Z,60.40
2018-08-18T21:27:31.101Z,60.90
2018-08-18T21:29:58.729Z,61.00
2018-08-18T21:32:27.239Z,61.20
2018-08-18T21:34:54.958Z,61.40
2018-08-18T21:37:22.847Z,61.70
2018-08-18T21:39:51.591Z,62.20
2018-08-18T21:42:19.297Z,62.30
2018-08-18T21:44:47.006Z,62.30
2018-08-18T21:47:16.846Z,62.50
2018-08-18T21:49:45.889Z,62.40
2018-08-18T21:52:14.654Z,62.30
2018-08-18T21:54:42.371Z,62.70
2018-08-18T21:57:10.028Z,62.70
2018-08-18T21:59:58.175Z,62.70
2018-08-18T22:02:38.189Z,62.70
2018-08-18T22:05:08.782Z,62.90
2018-08-18T22:10:29.814Z,64.10
2018-08-18T22:12:57.701Z,64.80
2018-08-18T22:15:25.401Z,65.20
2018-08-18T22:20:46.340Z,65.50
2018-08-18T22:23:13.969Z,65.60
2018-08-18T22:25:41.642Z,65.60
2018-08-18T22:28:09.841Z,65.40
2018-08-18T22:30:37.522Z,65.80
2018-08-18T22:33:05.195Z,65.70
2018-08-18T22:35:32.931Z,66.10
2018-08-18T22:38:00.798Z,65.40
2018-08-18T22:40:28.464Z,65.10
2018-08-18T22:42:56.114Z,65.50
2018-08-18T22:45:28.767Z,65.60
2018-08-18T22:47:56.543Z,65.60
2018-08-18T22:50:24.449Z,66.10
2018-08-18T22:52:53.170Z,66.10
2018-08-18T22:55:20.899Z,66.20
2018-08-18T22:57:54.124Z,66.40
2018-08-18T23:00:22.397Z,66.50
2018-08-18T23:02:50.081Z,66.10
2018-08-18T23:05:18.359Z,66.10
2018-08-18T23:07:48.695Z,66.10
2018-08-18T23:10:16.338Z,67.10
2018-08-18T23:12:43.994Z,66.70
2018-08-18T23:15:12.477Z,66.70
2018-08-18T23:17:40.084Z,66.70
2018-08-18T23:20:07.794Z,66.80
2018-08-18T23:22:55.024Z,66.70
2018-08-18T23:25:23.986Z,66.70
2018-08-18T23:27:51.779Z,66.60
2018-08-18T23:30:23.313Z,66.70
2018-08-18T23:32:51.014Z,66.50
2018-08-18T23:35:19.326Z,66.40
2018-08-18T23:37:46.970Z,66.30
2018-08-18T23:40:14.707Z,66.50
2018-08-18T23:42:42.329Z,66.60
2018-08-18T23:45:09.966Z,66.50
2018-08-18T23:47:37.580Z,67.50
2018-08-18T23:50:05.476Z,66.70
2018-08-18T23:52:45.671Z,66.40
2018-08-18T23:55:13.362Z,66.60
2018-08-18T23:57:40.978Z,66.90
